createdAt,value
2017-12-31T00:01:43.031Z,32.83
2017-12-31T00:04:13.039Z,32.50
2017-12-31T00:06:43.415Z,23.50
2017-12-31T00:09:13.621Z,22.50
2017-12-31T00:11:43.706Z,30.10
2017-12-31T00:14:14.121Z,23.50
2017-12-31T00:16:45.158Z,22.13
2017-12-31T00:19:15.236Z,22.57
2017-12-31T00:21:46.538Z,22.07
2017-12-31T00:24:18.451Z,28.43
2017-12-31T00:26:48.498Z,29.97
2017-12-31T00:29:18.807Z,26.93
2017-12-31T00:31:49.010Z,27.47
2017-12-31T00:34:19.874Z,24.70
2017-12-31T00:36:50.507Z,24.83
2017-12-31T00:39:20.913Z,26.87
2017-12-31T00:41:51.187Z,19.20
2017-12-31T00:44:21.190Z,29.47
2017-12-31T00:46:51.659Z,19.97
2017-12-31T00:49:22.598Z,24.57
2017-12-31T00:51:53.399Z,30.90
2017-12-31T00:54:24.027Z,32.13
2017-12-31T00:56:54.123Z,25.23
2017-12-31T00:59:25.816Z,20.50
2017-12-31T01:01:55.780Z,28.33
2017-12-31T01:04:25.823Z,31.17
2017-12-31T01:06:56.347Z,24.63
2017-12-31T01:09:26.405Z,27.93
2017-12-31T01:11:56.678Z,22.57
2017-12-31T01:14:27.063Z,23.37
2017-12-31T01:16:57.994Z,19.17
2017-12-31T01:19:29.354Z,34.73
2017-12-31T01:21:59.992Z,29.53
2017-12-31T01:24:30.005Z,20.77
2017-12-31T01:27:00.361Z,24.30
2017-12-31T01:29:30.682Z,22.47
2017-12-31T01:32:01.942Z,27.67
2017-12-31T01:34:33.137Z,34.60
2017-12-31T01:37:03.595Z,27.00
2017-12-31T01:39:33.550Z,26.37
2017-12-31T01:42:03.919Z,34.70
2017-12-31T01:44:34.287Z,19.87
2017-12-31T01:47:04.531Z,33.50
2017-12-31T01:49:34.678Z,21.97
2017-12-31T01:52:04.731Z,26.20
2017-12-31T01:54:35.374Z,27.40
2017-12-31T01:57:06.701Z,19.03
2017-12-31T01:59:36.691Z,32.30
2017-12-31T02:02:07.721Z,30.03
2017-12-31T02:04:37.915Z,34.60
2017-12-31T02:07:08.931Z,30.10
2017-12-31T02:09:39.423Z,35.93
2017-12-31T02:12:09.667Z,24.67
2017-12-31T02:14:39.996Z,27.80
2017-12-31T02:17:11.549Z,29.57
2017-12-31T02:19:42.633Z,26.93
2017-12-31T02:22:13.998Z,21.90
2017-12-31T02:24:45.313Z,36.83
2017-12-31T02:27:17.065Z,38.37
2017-12-31T02:29:47.082Z,26.43
2017-12-31T02:32:17.423Z,25.40
2017-12-31T02:34:48.083Z,31.17
2017-12-31T02:37:18.106Z,31.87
2017-12-31T02:39:48.480Z,32.63
2017-12-31T02:42:19.572Z,24.17
2017-12-31T02:44:49.987Z,24.10
2017-12-31T02:47:20.253Z,34.00
2017-12-31T02:49:50.683Z,25.23
2017-12-31T02:52:20.739Z,34.40
2017-12-31T02:54:51.931Z,45.03
2017-12-31T02:57:22.444Z,28.50
2017-12-31T02:59:52.575Z,34.53
2017-12-31T03:02:23.513Z,32.67
2017-12-31T03:04:53.860Z,28.40
2017-12-31T03:07:24.787Z,26.70
2017-12-31T03:09:54.924Z,33.40
2017-12-31T03:12:25.276Z,23.30
2017-12-31T03:14:55.795Z,25.47
2017-12-31T03:17:26.161Z,19.23
2017-12-31T03:19:56.199Z,16.20
2017-12-31T03:22:27.033Z,17.60
2017-12-31T03:24:57.678Z,25.23
2017-12-31T03:27:28.081Z,21.50
2017-12-31T03:29:59.975Z,21.57
2017-12-31T03:32:31.035Z,18.43
2017-12-31T03:35:01.456Z,27.57
2017-12-31T03:37:31.754Z,19.30
2017-12-31T03:40:01.939Z,18.37
2017-12-31T03:42:33.839Z,11.57
2017-12-31T03:45:04.338Z,29.13
2017-12-31T03:47:34.819Z,17.90
2017-12-31T03:50:05.418Z,12.20
2017-12-31T03:52:35.431Z,7.00
2017-12-31T03:55:05.943Z,23.33
2017-12-31T03:57:36.539Z,14.27
2017-12-31T04:00:07.603Z,16.20
2017-12-31T04:02:38.123Z,23.63
2017-12-31T04:05:08.663Z,10.03
2017-12-31T04:07:39.121Z,10.00
2017-12-31T04:10:10.068Z,21.30
2017-12-31T04:12:40.344Z,13.20
2017-12-31T04:15:11.738Z,16.27
2017-12-31T04:17:42.067Z,15.10
2017-12-31T04:20:12.234Z,12.90
2017-12-31T04:22:42.561Z,15.93
2017-12-31T04:25:14.258Z,16.40
2017-12-31T04:27:44.848Z,24.60
2017-12-31T04:30:14.908Z,22.13
2017-12-31T04:32:45.902Z,21.27
2017-12-31T04:35:17.274Z,17.43
2017-12-31T04:37:47.575Z,27.03
2017-12-31T04:40:18.451Z,16.13
2017-12-31T04:42:49.139Z,24.13
2017-12-31T04:45:20.474Z,13.33
2017-12-31T04:47:50.988Z,23.30
2017-12-31T04:50:21.935Z,28.87
2017-12-31T04:52:51.980Z,32.17
2017-12-31T04:55:22.298Z,15.43
2017-12-31T04:57:52.822Z,16.53
2017-12-31T05:00:23.988Z,12.70
2017-12-31T05:02:55.084Z,18.33
2017-12-31T05:05:25.592Z,13.27
2017-12-31T05:07:55.962Z,21.90
2017-12-31T05:10:26.998Z,11.13
2017-12-31T05:12:58.447Z,9.60
2017-12-31T05:15:28.985Z,17.50
2017-12-31T05:17:59.105Z,15.83
2017-12-31T05:20:30.066Z,11.90
2017-12-31T05:23:00.380Z,17.93
2017-12-31T05:25:30.679Z,13.43
2017-12-31T05:28:01.127Z,12.50
2017-12-31T05:30:31.876Z,9.70
2017-12-31T05:33:01.939Z,18.90
2017-12-31T05:35:33.212Z,10.80
2017-12-31T05:38:04.159Z,14.50
2017-12-31T05:40:34.471Z,15.30
2017-12-31T05:43:05.428Z,19.23
2017-12-31T05:45:36.139Z,14.13
2017-12-31T05:48:06.478Z,15.10
2017-12-31T05:50:36.616Z,17.73
2017-12-31T05:53:07.083Z,11.23
2017-12-31T05:55:37.645Z,16.60
2017-12-31T05:58:07.884Z,8.83
2017-12-31T06:00:38.089Z,14.90
2017-12-31T06:03:08.386Z,12.43
2017-12-31T06:05:39.211Z,11.20
2017-12-31T06:08:09.484Z,8.17
2017-12-31T06:10:39.796Z,11.30
2017-12-31T06:13:10.265Z,7.47
2017-12-31T06:15:40.931Z,8.80
2017-12-31T06:18:11.176Z,13.90
2017-12-31T06:20:41.660Z,10.37
2017-12-31T06:23:12.040Z,10.30
2017-12-31T06:25:42.356Z,11.80
2017-12-31T06:28:12.595Z,14.60
2017-12-31T06:33:17.643Z,15.37
2017-12-31T06:35:48.003Z,20.30
2017-12-31T06:38:19.236Z,23.50
2017-12-31T06:40:50.114Z,15.90
2017-12-31T06:43:21.183Z,16.87
2017-12-31T06:45:51.517Z,17.40
2017-12-31T06:48:21.492Z,19.13
2017-12-31T06:50:52.306Z,18.07
2017-12-31T06:53:22.845Z,18.07
2017-12-31T06:55:52.962Z,20.23
2017-12-31T06:58:23.275Z,19.57
2017-12-31T07:00:54.871Z,24.57
2017-12-31T07:03:25.119Z,21.87
2017-12-31T07:05:55.606Z,20.70
2017-12-31T07:08:26.513Z,19.97
2017-12-31T07:10:56.902Z,15.23
2017-12-31T07:13:27.255Z,22.80
2017-12-31T07:15:57.924Z,17.00
2017-12-31T07:18:28.496Z,19.00
2017-12-31T07:20:58.531Z,13.47
2017-12-31T07:23:28.563Z,9.27
2017-12-31T07:25:59.441Z,7.60
2017-12-31T07:28:29.498Z,9.80
2017-12-31T07:31:00.399Z,6.27
2017-12-31T07:33:31.436Z,9.17
2017-12-31T07:36:02.978Z,7.23
2017-12-31T07:38:33.933Z,4.73
2017-12-31T07:41:05.037Z,4.30
2017-12-31T07:43:35.208Z,4.00
2017-12-31T07:46:06.064Z,5.20
2017-12-31T07:48:36.246Z,4.80
2017-12-31T07:51:06.578Z,5.00
2017-12-31T07:53:37.250Z,5.47
2017-12-31T07:56:07.591Z,7.50
2017-12-31T07:58:37.683Z,7.93
2017-12-31T08:01:08.976Z,10.47
2017-12-31T08:03:39.845Z,6.30
2017-12-31T08:06:10.155Z,10.90
2017-12-31T08:08:40.885Z,9.20
2017-12-31T08:11:12.257Z,17.10
2017-12-31T08:13:43.119Z,23.57
2017-12-31T08:16:13.604Z,14.53
2017-12-31T08:18:43.944Z,14.47
2017-12-31T08:21:14.352Z,11.20
2017-12-31T08:23:45.418Z,16.23
2017-12-31T08:26:16.068Z,13.80
2017-12-31T08:28:46.367Z,15.73
2017-12-31T08:31:16.816Z,15.40
2017-12-31T08:33:47.416Z,17.33
2017-12-31T08:36:18.103Z,20.93
2017-12-31T08:38:48.425Z,14.10
2017-12-31T08:41:18.702Z,19.50
2017-12-31T08:43:49.377Z,14.70
2017-12-31T08:46:20.835Z,15.40
2017-12-31T08:48:51.340Z,21.40
2017-12-31T08:51:22.094Z,19.23
2017-12-31T08:53:52.196Z,20.53
2017-12-31T08:56:22.642Z,17.93
2017-12-31T08:58:53.586Z,12.90
2017-12-31T09:01:23.755Z,14.83
2017-12-31T09:03:54.922Z,10.57
2017-12-31T09:06:25.759Z,11.50
2017-12-31T09:08:56.134Z,18.57
2017-12-31T09:11:26.447Z,13.37
2017-12-31T09:13:57.290Z,9.90
2017-12-31T09:16:27.826Z,13.47
2017-12-31T09:18:58.395Z,11.67
2017-12-31T09:21:28.720Z,10.47
2017-12-31T09:23:59.278Z,12.90
2017-12-31T09:26:29.546Z,9.20
2017-12-31T09:28:59.878Z,20.50
2017-12-31T09:31:30.108Z,10.23
2017-12-31T09:36:37.618Z,15.73
2017-12-31T09:39:08.036Z,14.33
2017-12-31T09:41:39.241Z,12.97
2017-12-31T09:44:09.677Z,15.67
2017-12-31T09:46:40.407Z,8.93
2017-12-31T09:49:10.565Z,7.10
2017-12-31T09:51:40.697Z,8.53
2017-12-31T09:54:11.180Z,9.63
2017-12-31T09:56:41.687Z,12.63
2017-12-31T09:59:11.782Z,8.50
2017-12-31T10:01:42.715Z,9.90
2017-12-31T10:04:13.748Z,10.67
2017-12-31T10:06:43.974Z,9.20
2017-12-31T10:09:14.139Z,17.77
2017-12-31T10:11:44.650Z,9.47
2017-12-31T10:14:15.347Z,11.87
2017-12-31T10:16:46.551Z,10.13
2017-12-31T10:19:17.231Z,12.00
2017-12-31T10:21:48.903Z,7.63
2017-12-31T10:24:19.402Z,9.27
2017-12-31T10:26:49.568Z,8.23
2017-12-31T10:29:19.915Z,19.73
2017-12-31T10:31:50.856Z,11.17
2017-12-31T10:34:21.542Z,9.10
2017-12-31T10:36:52.678Z,13.87
2017-12-31T10:39:24.074Z,12.67
2017-12-31T10:41:54.895Z,14.63
2017-12-31T10:44:27.020Z,7.60
2017-12-31T10:46:58.119Z,8.00
2017-12-31T10:49:28.998Z,11.60
2017-12-31T10:51:59.792Z,16.57
2017-12-31T10:54:30.577Z,10.13
2017-12-31T10:57:01.473Z,14.53
2017-12-31T10:59:32.367Z,19.10
2017-12-31T11:02:03.685Z,10.80
2017-12-31T11:04:34.809Z,21.00
2017-12-31T11:07:06.308Z,8.50
2017-12-31T11:09:37.318Z,9.00
2017-12-31T11:12:07.959Z,10.90
2017-12-31T11:14:38.539Z,14.03
2017-12-31T11:17:09.471Z,8.13
2017-12-31T11:19:41.315Z,14.40
2017-12-31T11:22:11.871Z,9.80
2017-12-31T11:24:42.789Z,6.77
2017-12-31T11:27:13.362Z,13.43
2017-12-31T11:29:44.154Z,8.43
2017-12-31T11:32:16.597Z,13.20
2017-12-31T11:34:47.213Z,10.90
2017-12-31T11:37:17.739Z,9.30
2017-12-31T11:39:48.755Z,11.13
2017-12-31T11:42:19.304Z,7.23
2017-12-31T11:44:50.755Z,6.57
2017-12-31T11:47:21.726Z,8.03
2017-12-31T11:49:52.686Z,10.13
2017-12-31T11:52:24.430Z,5.23
2017-12-31T11:54:55.208Z,11.07
2017-12-31T11:57:27.703Z,11.50
2017-12-31T11:59:58.805Z,6.57
2017-12-31T12:02:29.815Z,6.00
2017-12-31T12:05:00.657Z,9.47
2017-12-31T12:07:31.674Z,4.10
2017-12-31T12:10:02.332Z,6.43
2017-12-31T12:12:33.025Z,7.77
2017-12-31T12:15:03.818Z,5.43
2017-12-31T12:17:34.472Z,4.87
2017-12-31T12:20:04.769Z,6.20
2017-12-31T12:22:36.237Z,8.60
2017-12-31T12:25:07.531Z,5.10
2017-12-31T12:27:38.267Z,4.93
2017-12-31T12:30:09.546Z,3.53
2017-12-31T12:32:41.083Z,8.90
2017-12-31T12:35:12.656Z,5.03
2017-12-31T12:37:44.336Z,5.07
2017-12-31T12:40:14.820Z,4.93
2017-12-31T12:42:47.845Z,8.63
2017-12-31T12:45:19.683Z,6.80
2017-12-31T12:47:50.347Z,3.53
2017-12-31T12:50:21.164Z,8.43
2017-12-31T12:52:51.881Z,6.07
2017-12-31T12:55:22.833Z,6.20
2017-12-31T12:57:53.863Z,12.50
2017-12-31T13:00:24.610Z,5.23
2017-12-31T13:02:55.498Z,8.00
2017-12-31T13:05:26.567Z,3.03
2017-12-31T13:07:57.176Z,9.43
2017-12-31T13:10:27.677Z,6.47
2017-12-31T13:12:58.222Z,7.43
2017-12-31T13:15:28.815Z,3.23
2017-12-31T13:17:59.398Z,10.93
2017-12-31T13:20:29.638Z,5.77
2017-12-31T13:23:00.293Z,2.93
2017-12-31T13:25:31.379Z,3.93
2017-12-31T13:28:02.570Z,4.93
2017-12-31T13:30:33.403Z,5.60
2017-12-31T13:33:04.125Z,7.43
2017-12-31T13:35:36.061Z,3.53
2017-12-31T13:38:06.530Z,6.47
2017-12-31T13:40:37.262Z,4.07
2017-12-31T13:43:08.401Z,7.13
2017-12-31T13:45:39.327Z,4.57
2017-12-31T13:48:12.513Z,3.10
2017-12-31T13:50:43.393Z,3.43
2017-12-31T13:53:14.571Z,2.67
2017-12-31T13:55:45.357Z,6.90
2017-12-31T13:58:16.370Z,3.83
2017-12-31T14:00:46.938Z,3.97
2017-12-31T14:03:17.512Z,4.57
2017-12-31T14:05:48.202Z,3.93
2017-12-31T14:08:18.765Z,4.47
2017-12-31T14:10:49.813Z,4.97
2017-12-31T14:13:21.667Z,9.63
2017-12-31T14:15:52.348Z,2.80
2017-12-31T14:18:23.093Z,3.03
2017-12-31T14:20:53.724Z,4.00
2017-12-31T14:23:24.436Z,5.50
2017-12-31T14:25:55.455Z,4.20
2017-12-31T14:28:26.238Z,5.07
2017-12-31T14:30:57.030Z,3.27
2017-12-31T14:33:28.577Z,3.73
2017-12-31T14:35:59.255Z,4.87
2017-12-31T14:38:29.763Z,2.80
2017-12-31T14:41:01.083Z,5.90
2017-12-31T14:43:32.929Z,3.83
2017-12-31T14:46:03.491Z,3.20
2017-12-31T14:48:35.062Z,4.63
2017-12-31T14:51:05.772Z,4.73
2017-12-31T14:53:37.042Z,6.23
2017-12-31T14:56:07.818Z,2.43
2017-12-31T14:58:38.721Z,2.27
2017-12-31T15:01:09.730Z,3.60
2017-12-31T15:03:40.493Z,9.33
2017-12-31T15:06:12.149Z,4.33
2017-12-31T15:08:42.675Z,5.33
2017-12-31T15:11:13.250Z,6.50
2017-12-31T15:13:44.274Z,5.13
2017-12-31T15:16:14.815Z,2.10
2017-12-31T15:18:45.704Z,4.40
2017-12-31T15:21:16.935Z,2.80
2017-12-31T15:23:48.345Z,5.00
2017-12-31T15:26:18.838Z,3.30
2017-12-31T15:28:48.984Z,5.70
2017-12-31T15:31:19.843Z,3.50
2017-12-31T15:33:50.833Z,3.47
2017-12-31T15:36:21.777Z,3.40
2017-12-31T15:38:52.699Z,7.80
2017-12-31T15:41:23.583Z,4.13
2017-12-31T15:43:54.636Z,4.30
2017-12-31T15:46:24.873Z,3.10
2017-12-31T15:48:55.926Z,4.73
2017-12-31T15:51:26.488Z,3.80
2017-12-31T15:53:56.677Z,2.60
2017-12-31T15:56:27.908Z,4.27
2017-12-31T15:58:58.196Z,5.33
2017-12-31T16:01:28.483Z,2.57
2017-12-31T16:03:59.380Z,2.30
2017-12-31T16:06:29.951Z,4.73
2017-12-31T16:09:00.272Z,5.00
2017-12-31T16:11:30.549Z,2.60
2017-12-31T16:14:02.032Z,5.17
2017-12-31T16:16:33.343Z,6.53
2017-12-31T16:19:03.757Z,9.00
2017-12-31T16:21:34.948Z,2.93
2017-12-31T16:24:05.980Z,10.80
2017-12-31T16:26:37.023Z,3.67
2017-12-31T16:29:08.569Z,4.57
2017-12-31T16:31:39.024Z,3.43
2017-12-31T16:34:09.395Z,6.00
2017-12-31T16:36:40.476Z,8.63
2017-12-31T16:39:10.884Z,5.30
2017-12-31T16:41:41.188Z,5.50
2017-12-31T16:44:11.660Z,6.50
2017-12-31T16:46:41.835Z,6.47
2017-12-31T16:49:12.000Z,4.53
2017-12-31T16:51:42.439Z,4.10
2017-12-31T16:54:12.971Z,6.60
2017-12-31T16:56:43.347Z,3.83
2017-12-31T16:59:13.992Z,3.63
2017-12-31T17:01:45.072Z,4.47
2017-12-31T17:04:15.239Z,3.67
2017-12-31T17:06:45.758Z,4.47
2017-12-31T17:09:16.852Z,2.27
2017-12-31T17:11:48.291Z,3.87
2017-12-31T17:14:19.290Z,3.20
2017-12-31T17:16:49.879Z,2.80
2017-12-31T17:19:22.083Z,3.47
2017-12-31T17:21:52.400Z,3.20
2017-12-31T17:24:22.603Z,2.43
2017-12-31T17:26:53.071Z,7.90
2017-12-31T17:29:23.393Z,5.67
2017-12-31T17:31:53.736Z,3.53
2017-12-31T17:34:24.713Z,4.03
2017-12-31T17:36:54.959Z,6.67
2017-12-31T17:39:25.098Z,2.10
2017-12-31T17:41:55.839Z,3.10
2017-12-31T17:44:26.773Z,2.33
2017-12-31T17:46:57.458Z,2.80
2017-12-31T17:49:27.955Z,3.97
2017-12-31T17:51:59.065Z,2.90
2017-12-31T17:54:30.084Z,6.20
2017-12-31T17:57:02.925Z,5.20
2017-12-31T17:59:33.990Z,4.53
2017-12-31T18:02:04.318Z,3.70
2017-12-31T18:04:35.196Z,4.10
2017-12-31T18:07:05.457Z,3.70
2017-12-31T18:09:35.680Z,4.20
2017-12-31T18:12:06.374Z,3.43
2017-12-31T18:14:36.597Z,2.40
2017-12-31T18:17:06.793Z,2.93
2017-12-31T18:19:37.052Z,3.50
2017-12-31T18:22:07.315Z,3.50
2017-12-31T18:24:37.439Z,2.83
2017-12-31T18:27:08.020Z,2.17
2017-12-31T18:29:38.352Z,2.30
2017-12-31T18:32:08.520Z,3.57
2017-12-31T18:34:38.569Z,3.67
2017-12-31T18:37:08.732Z,3.40
2017-12-31T18:39:39.621Z,5.47
2017-12-31T18:42:10.371Z,7.67
2017-12-31T18:44:40.489Z,3.60
2017-12-31T18:47:11.660Z,3.50
2017-12-31T18:49:42.726Z,2.37
2017-12-31T18:52:12.794Z,6.13
2017-12-31T18:54:43.017Z,5.20
2017-12-31T18:57:13.395Z,3.63
2017-12-31T18:59:43.594Z,4.30
2017-12-31T19:02:14.108Z,3.50
2017-12-31T19:04:45.199Z,5.10
2017-12-31T19:07:16.222Z,4.70
2017-12-31T19:09:46.602Z,3.70
2017-12-31T19:12:17.253Z,3.37
2017-12-31T19:14:48.257Z,6.90
2017-12-31T19:17:18.620Z,2.93
2017-12-31T19:19:49.713Z,3.90
2017-12-31T19:22:20.328Z,5.10
2017-12-31T19:24:50.572Z,3.47
2017-12-31T19:27:20.897Z,4.10
2017-12-31T19:29:51.371Z,17.23
2017-12-31T19:32:22.048Z,7.60
2017-12-31T19:34:52.303Z,3.90
2017-12-31T19:37:22.794Z,4.53
2017-12-31T19:39:53.104Z,3.80
2017-12-31T19:42:23.541Z,3.07
2017-12-31T19:44:53.649Z,5.37
2017-12-31T19:47:23.984Z,3.77
2017-12-31T19:49:54.118Z,2.10
2017-12-31T19:52:25.215Z,3.43
2017-12-31T19:54:59.180Z,2.40
2017-12-31T19:57:33.469Z,2.60
2017-12-31T20:00:04.806Z,3.10
2017-12-31T20:02:35.139Z,5.03
2017-12-31T20:05:05.263Z,3.57
2017-12-31T20:07:35.756Z,2.90
2017-12-31T20:10:06.169Z,3.70
2017-12-31T20:12:36.958Z,2.67
2017-12-31T20:15:07.098Z,10.90
2017-12-31T20:17:37.634Z,5.00
2017-12-31T20:20:08.674Z,3.77
2017-12-31T20:22:39.736Z,3.83
2017-12-31T20:25:09.877Z,3.23
2017-12-31T20:27:40.147Z,3.60
2017-12-31T20:30:10.307Z,3.00
2017-12-31T20:32:41.201Z,3.00
2017-12-31T20:35:11.361Z,4.40
2017-12-31T20:37:41.455Z,2.70
2017-12-31T20:40:11.706Z,2.50
2017-12-31T20:42:42.081Z,2.40
2017-12-31T20:45:12.310Z,2.30
2017-12-31T20:47:42.889Z,2.33
2017-12-31T20:50:13.196Z,4.30
2017-12-31T20:52:43.681Z,3.43
2017-12-31T20:55:13.947Z,3.90
2017-12-31T20:57:46.005Z,5.10
2017-12-31T21:00:16.911Z,4.50
2017-12-31T21:02:48.126Z,3.60
2017-12-31T21:05:18.287Z,2.63
2017-12-31T21:07:48.862Z,3.47
2017-12-31T21:10:19.292Z,3.03
2017-12-31T21:12:50.205Z,3.03
2017-12-31T21:15:21.240Z,5.20
2017-12-31T21:17:52.273Z,4.13
2017-12-31T21:20:23.266Z,5.37
2017-12-31T21:22:53.740Z,5.17
2017-12-31T21:25:23.914Z,4.00
2017-12-31T21:27:54.162Z,8.77
2017-12-31T21:30:24.383Z,9.93
2017-12-31T21:32:55.383Z,7.07
2017-12-31T21:35:25.528Z,6.50
2017-12-31T21:37:56.243Z,4.33
2017-12-31T21:40:26.456Z,6.13
2017-12-31T21:42:56.605Z,6.37
2017-12-31T21:45:26.964Z,4.77
2017-12-31T21:47:57.155Z,2.50
2017-12-31T21:50:27.307Z,4.00
2017-12-31T21:52:57.763Z,3.30
2017-12-31T21:55:27.889Z,5.93
2017-12-31T21:57:58.024Z,3.47
2017-12-31T22:00:28.150Z,2.90
2017-12-31T22:02:58.357Z,2.97
2017-12-31T22:05:28.541Z,5.33
2017-12-31T22:07:59.859Z,6.20
2017-12-31T22:10:30.899Z,5.20
2017-12-31T22:13:01.078Z,4.63
2017-12-31T22:15:31.204Z,6.37
2017-12-31T22:18:02.064Z,6.03
2017-12-31T22:20:32.487Z,5.13
2017-12-31T22:23:03.555Z,16.00
2017-12-31T22:25:34.483Z,9.70
2017-12-31T22:28:04.643Z,4.77
2017-12-31T22:30:35.254Z,6.50
2017-12-31T22:33:06.204Z,6.37
2017-12-31T22:35:37.156Z,6.03
2017-12-31T22:38:08.366Z,5.30
2017-12-31T22:40:39.822Z,6.30
2017-12-31T22:43:10.119Z,10.30
2017-12-31T22:45:40.450Z,8.30
2017-12-31T22:48:12.112Z,6.17
2017-12-31T22:50:43.130Z,5.60
2017-12-31T22:53:13.984Z,5.77
2017-12-31T22:55:44.102Z,7.97
2017-12-31T22:58:14.788Z,9.97
2017-12-31T23:00:45.106Z,15.33
2017-12-31T23:03:15.617Z,40.63
2017-12-31T23:05:45.797Z,58.40
2017-12-31T23:08:15.941Z,135.67
2017-12-31T23:10:47.011Z,65.17
2017-12-31T23:13:17.194Z,87.43
2017-12-31T23:15:48.065Z,48.80
2017-12-31T23:18:18.795Z,76.93
2017-12-31T23:20:49.384Z,70.83
2017-12-31T23:23:20.685Z,90.30
2017-12-31T23:25:51.017Z,58.97
2017-12-31T23:28:21.335Z,61.37
2017-12-31T23:30:51.725Z,52.67
2017-12-31T23:33:23.066Z,49.20
2017-12-31T23:35:54.072Z,51.63
2017-12-31T23:38:24.563Z,38.20
2017-12-31T23:40:55.049Z,60.67
2017-12-31T23:43:26.285Z,40.20
2017-12-31T23:45:56.818Z,45.07
2017-12-31T23:48:27.239Z,36.70
2017-12-31T23:50:58.795Z,37.87
2017-12-31T23:53:29.406Z,51.10
2017-12-31T23:55:59.661Z,31.67
2017-12-31T23:58:29.908Z,28.10
